Time;durP1;ratioP1;P1;durP2;ratioP2;P2;SDS_P1;SDS_P2;PMS_P1;PMS_P2;Temp;Humidity;BMP_temperature;BMP_pressure;BME280_temperature;BME280_humidity;BME280_pressure;Samples;Min_cycle;Max_cycle;Signal;HPM_P1;HPM_P2
2022/08/18 00:00:44;;;;;;;0.60;0.60;;;;;;;20.58;82.88;101382.28;1962988;30;20143;-69
2022/08/18 00:01:51;;;;;;;0.50;0.50;;;;;;;20.59;83.01;101377.56;1948790;30;20064;-68
2022/08/18 00:02:54;;;;;;;0.50;0.50;;;;;;;20.60;83.38;101377.19;1957113;30;20344;-70
2022/08/18 00:04:10;;;;;;;0.50;0.50;;;;;;;20.59;82.77;101374.84;1964626;30;20067;-70
2022/08/18 00:05:32;;;;;;;0.55;0.55;;;;;;;20.59;82.99;101374.84;1962819;30;20117;-69
2022/08/18 00:06:40;;;;;;;0.52;0.52;;;;;;;20.60;83.00;101370.91;1964351;30;20059;-69
2022/08/18 00:07:43;;;;;;;0.50;0.50;;;;;;;20.62;82.85;101371.28;1965328;30;20052;-70
2022/08/18 00:08:47;;;;;;;0.50;0.50;;;;;;;20.61;82.79;101373.25;1969876;30;20067;-70
2022/08/18 00:09:57;;;;;;;0.60;0.60;;;;;;;20.64;83.14;101372.44;1963647;30;20162;-69
2022/08/18 00:10:59;;;;;;;0.50;0.50;;;;;;;20.61;82.59;101369.75;1964727;30;20529;-69
2022/08/18 00:12:07;;;;;;;0.50;0.50;;;;;;;20.66;82.67;101372.09;1978323;30;20055;-69
2022/08/18 00:13:09;;;;;;;0.40;0.40;;;;;;;20.65;82.62;101368.56;1968131;30;20126;-68
2022/08/18 00:14:15;;;;;;;0.45;0.45;;;;;;;20.67;82.65;101368.16;1965003;30;20056;-69
2022/08/18 00:15:23;;;;;;;0.60;0.60;;;;;;;20.63;83.26;101367.38;1965496;30;20099;-70
2022/08/18 00:16:26;;;;;;;0.60;0.60;;;;;;;20.66;83.02;101363.84;1962026;30;20067;-69
2022/08/18 00:17:28;;;;;;;0.50;0.50;;;;;;;20.66;83.04;101369.34;1971095;30;20461;-69
2022/08/18 00:18:31;;;;;;;0.50;0.50;;;;;;;20.67;83.05;101365.41;1961017;30;20135;-68
2022/08/18 00:19:33;;;;;;;0.55;0.55;;;;;;;20.67;83.16;101359.91;1955929;30;20091;-69
2022/08/18 00:20:49;;;;;;;0.60;0.60;;;;;;;20.66;83.21;101370.09;1964373;30;20133;-69
2022/08/18 00:21:51;;;;;;;0.50;0.50;;;;;;;20.69;82.47;101365.81;1962852;30;20526;-69
2022/08/18 00:22:55;;;;;;;0.60;0.60;;;;;;;20.68;82.65;101359.53;1953587;30;20113;-69
2022/08/18 00:23:57;;;;;;;0.50;0.50;;;;;;;20.67;82.92;101362.66;1956939;30;20071;-71
2022/08/18 00:25:00;;;;;;;0.50;0.50;;;;;;;20.64;82.62;101363.47;1963259;30;20485;-68
2022/08/18 00:26:03;;;;;;;0.60;0.60;;;;;;;20.61;83.05;101361.50;1953134;30;20092;-69
2022/08/18 00:27:09;;;;;;;0.60;0.60;;;;;;;20.62;82.93;101358.38;1959453;30;20155;-69
2022/08/18 00:28:12;;;;;;;0.60;0.60;;;;;;;20.59;82.72;101359.16;1958816;30;20796;-69
2022/08/18 00:29:15;;;;;;;0.60;0.60;;;;;;;20.59;82.54;101361.13;1968918;30;20060;-69
2022/08/18 00:30:20;;;;;;;0.50;0.50;;;;;;;20.57;82.47;101364.25;1969158;30;20052;-71
2022/08/18 00:31:24;;;;;;;0.50;0.50;;;;;;;20.52;82.28;101359.16;1965493;30;20062;-70
2022/08/18 00:32:30;;;;;;;0.60;0.60;;;;;;;20.49;82.70;101365.44;1970823;30;20051;-69
2022/08/18 00:33:32;;;;;;;0.60;0.60;;;;;;;20.47;82.59;101359.56;1963465;30;20421;-69
2022/08/18 00:34:35;;;;;;;0.60;0.60;;;;;;;20.47;82.90;101361.53;1957329;30;20430;-70
2022/08/18 00:35:41;;;;;;;0.60;0.60;;;;;;;20.46;82.60;101368.97;1962660;30;20064;-69
2022/08/18 00:36:45;;;;;;;0.60;0.60;;;;;;;20.44;82.94;101357.59;1959527;30;20079;-69
2022/08/18 00:37:47;;;;;;;0.60;0.60;;;;;;;20.46;82.86;101354.47;1966867;30;20451;-70
2022/08/18 00:38:50;;;;;;;0.52;0.52;;;;;;;20.47;82.51;101361.53;1963177;30;20087;-71
2022/08/18 00:39:53;;;;;;;0.60;0.60;;;;;;;20.47;82.61;101358.81;1963634;30;20075;-71
2022/08/18 00:40:56;;;;;;;0.60;0.60;;;;;;;20.47;82.44;101361.53;1962503;30;20061;-70
2022/08/18 00:41:59;;;;;;;0.57;0.57;;;;;;;20.46;82.47;101360.75;1963640;30;20099;-70
2022/08/18 00:43:05;;;;;;;0.60;0.60;;;;;;;20.45;82.34;101363.88;1961991;30;20088;-69
2022/08/18 00:44:07;;;;;;;0.60;0.60;;;;;;;20.43;82.60;101368.97;1957255;30;20182;-69
2022/08/18 00:45:14;;;;;;;0.50;0.50;;;;;;;20.42;82.27;101370.94;1959480;30;20083;-71
2022/08/18 00:46:18;;;;;;;0.60;0.60;;;;;;;20.41;82.98;101368.56;1957070;30;20086;-71
2022/08/18 00:47:21;;;;;;;0.60;0.60;;;;;;;20.39;83.10;101376.44;1948647;30;20511;-71
2022/08/18 00:48:45;;;;;;;0.50;0.50;;;;;;;20.35;82.63;101375.66;1957724;30;20110;-72
2022/08/18 00:49:52;;;;;;;0.50;0.50;;;;;;;20.35;82.45;101375.66;1959414;30;20065;-71
2022/08/18 00:50:57;;;;;;;0.60;0.60;;;;;;;20.35;82.38;101381.13;1964447;30;20135;-71
2022/08/18 00:52:00;;;;;;;0.57;0.57;;;;;;;20.30;82.55;101378.78;1965127;30;20087;-70
2022/08/18 00:53:07;;;;;;;0.60;0.60;;;;;;;20.30;82.97;101379.56;1973480;30;20064;-71
2022/08/18 00:54:14;;;;;;;0.60;0.60;;;;;;;20.29;82.82;101372.53;1965092;30;20067;-71
2022/08/18 00:55:18;;;;;;;0.50;0.50;;;;;;;20.28;82.72;101373.69;1962504;30;20091;-71
2022/08/18 00:56:23;;;;;;;0.55;0.55;;;;;;;20.28;83.15;101370.94;1968999;30;20063;-71
2022/08/18 00:57:26;;;;;;;0.60;0.60;;;;;;;20.28;82.94;101372.94;1971678;30;20051;-71
2022/08/18 00:58:35;;;;;;;0.52;0.52;;;;;;;20.28;82.83;101368.19;1971793;30;20060;-72
2022/08/18 00:59:45;;;;;;;0.57;0.57;;;;;;;20.26;82.66;101367.03;1958075;30;20560;-72
2022/08/18 01:00:49;;;;;;;0.60;0.60;;;;;;;20.22;82.52;101366.25;1972833;30;20123;-71
2022/08/18 01:01:54;;;;;;;0.52;0.52;;;;;;;20.19;83.24;101356.84;1970055;30;20572;-71
2022/08/18 01:03:00;;;;;;;0.60;0.60;;;;;;;20.24;82.99;101372.13;1972278;30;20052;-71
2022/08/18 01:04:06;;;;;;;0.50;0.50;;;;;;;20.20;82.91;101369.38;1968197;30;20567;-71
2022/08/18 01:05:15;;;;;;;0.50;0.50;;;;;;;20.22;83.28;101366.25;1966441;30;20052;-72
2022/08/18 01:06:28;;;;;;;0.50;0.50;;;;;;;20.20;83.08;101363.13;1964808;30;20059;-71
2022/08/18 01:07:35;;;;;;;0.50;0.50;;;;;;;20.22;83.50;101360.75;1964880;30;20093;-71
2022/08/18 01:08:39;;;;;;;0.50;0.50;;;;;;;20.21;84.03;101356.47;1969263;30;20067;-71
2022/08/18 01:09:41;;;;;;;0.50;0.50;;;;;;;20.25;83.75;101362.72;1963561;30;20064;-71
2022/08/18 01:10:47;;;;;;;0.60;0.60;;;;;;;20.28;83.34;101361.97;1963641;30;20056;-71
2022/08/18 01:11:50;;;;;;;0.60;0.60;;;;;;;20.28;83.42;101367.44;1968441;30;20068;-71
2022/08/18 01:12:55;;;;;;;0.60;0.60;;;;;;;20.30;83.07;101374.09;1978468;30;20066;-71
2022/08/18 01:13:59;;;;;;;0.52;0.52;;;;;;;20.32;82.63;101370.94;1975027;30;20059;-71
2022/08/18 01:15:02;;;;;;;0.50;0.50;;;;;;;20.31;82.78;101374.88;1972405;30;20063;-71
2022/08/18 01:21:52;;;;;;;0.60;0.60;;;;;;;20.27;83.49;101374.09;1950569;30;20534;-70
2022/08/18 01:23:00;;;;;;;0.50;0.50;;;;;;;20.25;83.26;101374.47;1966926;30;20064;-70
2022/08/18 01:24:07;;;;;;;0.50;0.50;;;;;;;20.29;83.25;101369.00;1964316;30;20064;-70
2022/08/18 01:26:30;;;;;;;0.60;0.60;;;;;;;20.24;83.01;101375.66;1967144;30;20091;-70
2022/08/18 01:27:33;;;;;;;0.70;0.70;;;;;;;20.28;83.39;101376.44;1964932;30;20798;-70
2022/08/18 01:28:40;;;;;;;0.60;0.60;;;;;;;20.31;83.16;101372.13;1965821;30;20608;-72
2022/08/18 01:29:43;;;;;;;0.60;0.60;;;;;;;20.30;83.41;101379.56;1975040;30;20052;-69
2022/08/18 01:30:49;;;;;;;0.70;0.70;;;;;;;20.33;83.38;101378.00;1971465;30;20064;-71
2022/08/18 01:31:53;;;;;;;0.60;0.60;;;;;;;20.32;82.95;101382.72;1973631;30;20055;-71
2022/08/18 01:32:58;;;;;;;0.60;0.60;;;;;;;20.32;83.25;101381.91;1968890;30;20589;-71
2022/08/18 01:34:01;;;;;;;0.60;0.60;;;;;;;20.32;83.23;101384.66;1965609;30;20071;-70
2022/08/18 01:35:10;;;;;;;0.60;0.60;;;;;;;20.33;83.16;101389.75;1972707;30;20079;-71
2022/08/18 01:36:15;;;;;;;0.68;0.68;;;;;;;20.32;83.10;101379.19;1970041;30;20475;-71
2022/08/18 01:37:21;;;;;;;0.60;0.60;;;;;;;20.34;83.27;101379.56;1968907;30;20130;-71
2022/08/18 01:38:25;;;;;;;0.60;0.60;;;;;;;20.35;83.49;101378.38;1961786;30;20064;-71
2022/08/18 01:39:28;;;;;;;0.60;0.60;;;;;;;20.34;82.93;101380.34;1963358;30;20494;-71
2022/08/18 01:40:50;;;;;;;0.60;0.60;;;;;;;20.33;83.35;101375.25;1957952;30;20056;-70
2022/08/18 01:42:16;;;;;;;0.60;0.60;;;;;;;20.34;83.38;101379.56;1960238;30;20090;-71
2022/08/18 01:43:19;;;;;;;0.60;0.60;;;;;;;20.36;83.50;101377.22;1970849;30;20074;-71
2022/08/18 01:44:22;;;;;;;0.60;0.60;;;;;;;20.37;83.52;101373.31;1966607;30;20087;-71
2022/08/18 01:45:24;;;;;;;0.60;0.60;;;;;;;20.37;83.34;101373.31;1967491;30;20458;-71
2022/08/18 01:46:28;;;;;;;0.60;0.60;;;;;;;20.40;83.05;101376.03;1968442;30;20060;-71
2022/08/18 01:47:32;;;;;;;0.60;0.60;;;;;;;20.42;82.55;101376.41;1966668;30;20083;-71
2022/08/18 01:48:57;;;;;;;0.60;0.60;;;;;;;20.36;83.12;101371.75;1960837;30;20090;-70
2022/08/18 01:49:59;;;;;;;0.60;0.60;;;;;;;20.36;82.90;101372.50;1954506;30;20399;-70
2022/08/18 01:51:05;;;;;;;0.60;0.60;;;;;;;20.39;82.76;101373.69;1964986;30;20068;-72
2022/08/18 01:52:08;;;;;;;0.52;0.52;;;;;;;20.37;82.65;101381.53;1966617;30;20132;-71
2022/08/18 01:53:11;;;;;;;0.52;0.52;;;;;;;20.37;83.09;101373.31;1954259;30;20094;-71
2022/08/18 01:54:15;;;;;;;0.52;0.52;;;;;;;20.39;83.01;101376.44;1957623;30;20060;-71
2022/08/18 01:55:18;;;;;;;0.60;0.60;;;;;;;20.37;82.90;101370.56;1972260;30;20425;-72
2022/08/18 01:56:21;;;;;;;0.52;0.52;;;;;;;20.38;83.24;101374.84;1968393;30;20060;-71
2022/08/18 01:57:25;;;;;;;0.60;0.60;;;;;;;20.39;83.47;101376.44;1965923;30;20060;-70
2022/08/18 01:58:27;;;;;;;0.60;0.60;;;;;;;20.40;83.11;101373.31;1960093;30;20060;-71
2022/08/18 01:59:34;;;;;;;0.50;0.50;;;;;;;20.40;83.31;101367.81;1957979;30;20962;-70
2022/08/18 02:00:36;;;;;;;0.60;0.60;;;;;;;20.40;83.01;101375.25;1957128;30;20072;-71
2022/08/18 02:01:42;;;;;;;0.50;0.50;;;;;;;20.41;82.68;101368.56;1953412;30;20156;-69
2022/08/18 02:02:55;;;;;;;0.60;0.60;;;;;;;20.37;82.60;101374.09;1965510;30;20060;-71
2022/08/18 02:04:06;;;;;;;0.60;0.60;;;;;;;20.36;82.72;101374.50;1965967;30;20063;-71
2022/08/18 02:05:32;;;;;;;0.60;0.60;;;;;;;20.33;82.96;101373.28;1957493;30;20061;-71
2022/08/18 02:06:35;;;;;;;0.60;0.60;;;;;;;20.33;83.02;101372.50;1960510;30;20154;-70
2022/08/18 02:07:40;;;;;;;0.70;0.70;;;;;;;20.34;83.22;101377.59;1966886;30;20072;-71
2022/08/18 02:08:44;;;;;;;0.60;0.60;;;;;;;20.35;83.62;101375.66;1970336;30;20143;-71
2022/08/18 02:09:57;;;;;;;0.60;0.60;;;;;;;20.35;83.35;101376.44;1969474;30;20144;-72
2022/08/18 02:11:02;;;;;;;0.70;0.70;;;;;;;20.35;83.35;101372.91;1966980;30;20068;-71
2022/08/18 02:12:06;;;;;;;0.60;0.60;;;;;;;20.38;83.15;101374.84;1965555;30;20140;-70
2022/08/18 02:13:09;;;;;;;0.60;0.60;;;;;;;20.36;83.27;101372.50;1965935;30;20055;-71
2022/08/18 02:14:12;;;;;;;0.65;0.65;;;;;;;20.38;83.51;101369.38;1958991;30;20064;-71
2022/08/18 02:15:15;;;;;;;0.60;0.60;;;;;;;20.39;83.20;101371.72;1964395;30;20063;-70
2022/08/18 02:16:17;;;;;;;0.60;0.60;;;;;;;20.39;83.39;101373.69;1968648;30;20067;-70
2022/08/18 02:17:21;;;;;;;0.60;0.60;;;;;;;20.41;83.10;101372.13;1965282;30;20417;-71
2022/08/18 02:18:26;;;;;;;0.60;0.60;;;;;;;20.43;83.21;101372.50;1961970;30;20060;-71
2022/08/18 02:19:49;;;;;;;0.60;0.60;;;;;;;20.37;83.35;101363.13;1965692;30;20056;-71
2022/08/18 02:20:51;;;;;;;0.60;0.60;;;;;;;20.40;83.44;101367.03;1970240;30;20083;-71
2022/08/18 02:21:54;;;;;;;0.60;0.60;;;;;;;20.41;83.18;101369.38;1958652;30;20053;-70
2022/08/18 02:22:58;;;;;;;0.60;0.60;;;;;;;20.42;83.23;101367.41;1960137;30;20072;-70
2022/08/18 02:24:00;;;;;;;0.60;0.60;;;;;;;20.41;83.08;101357.59;1965793;30;20102;-71
2022/08/18 02:25:05;;;;;;;0.60;0.60;;;;;;;20.43;82.63;101352.53;1964929;30;20068;-70
2022/08/18 02:26:12;;;;;;;0.50;0.50;;;;;;;20.43;82.70;101355.25;1957927;30;20106;-70
2022/08/18 02:27:16;;;;;;;0.40;0.40;;;;;;;20.43;83.07;101360.75;1958942;30;20495;-70
2022/08/18 02:28:18;;;;;;;0.55;0.55;;;;;;;20.41;83.34;101355.66;1971805;30;20138;-71
2022/08/18 02:29:21;;;;;;;0.50;0.50;;;;;;;20.41;83.43;101350.16;1970902;30;20067;-70
2022/08/18 02:30:24;;;;;;;0.50;0.50;;;;;;;20.42;82.97;101354.47;1966886;30;20482;-70
2022/08/18 02:31:26;;;;;;;0.60;0.60;;;;;;;20.41;83.20;101347.44;1968268;30;20048;-71
2022/08/18 02:32:31;;;;;;;0.50;0.50;;;;;;;20.43;82.70;101355.25;1966346;30;20139;-70
2022/08/18 02:33:33;;;;;;;0.50;0.50;;;;;;;20.41;83.05;101352.13;1964543;30;20098;-71
2022/08/18 02:34:36;;;;;;;0.60;0.60;;;;;;;20.43;82.66;101353.31;1964254;30;20466;-70
2022/08/18 02:35:39;;;;;;;0.57;0.57;;;;;;;20.43;82.65;101355.25;1967914;30;20070;-70
2022/08/18 02:36:42;;;;;;;0.50;0.50;;;;;;;20.40;83.12;101348.63;1969409;30;20064;-70
2022/08/18 02:37:46;;;;;;;0.50;0.50;;;;;;;20.41;82.60;101347.44;1968068;30;20060;-70
2022/08/18 02:38:50;;;;;;;0.60;0.60;;;;;;;20.39;82.85;101344.28;1969397;30;20110;-70
2022/08/18 02:40:00;;;;;;;0.50;0.50;;;;;;;20.37;83.05;101345.88;1965367;30;20063;-72
2022/08/18 02:41:08;;;;;;;0.50;0.50;;;;;;;20.37;82.99;101340.38;1968986;30;20498;-70
2022/08/18 02:42:10;;;;;;;0.50;0.50;;;;;;;20.34;83.15;101341.94;1963484;30;20135;-70
2022/08/18 02:43:13;;;;;;;0.50;0.50;;;;;;;20.33;83.11;101340.38;1963405;30;20096;-69
2022/08/18 02:44:14;;;;;;;0.50;0.50;;;;;;;20.33;83.08;101347.81;1967836;30;20472;-71
2022/08/18 02:45:18;;;;;;;0.55;0.55;;;;;;;20.34;83.33;101346.66;1971101;30;20082;-71
2022/08/18 02:46:20;;;;;;;0.60;0.60;;;;;;;20.31;83.42;101336.47;1966053;30;20094;-70
2022/08/18 02:47:25;;;;;;;0.50;0.50;;;;;;;20.33;83.18;101340.38;1957247;30;20080;-71
2022/08/18 02:48:34;;;;;;;0.60;0.60;;;;;;;20.29;82.99;101341.56;1961795;30;20130;-71
2022/08/18 02:49:37;;;;;;;0.50;0.50;;;;;;;20.28;83.37;101338.03;1958852;30;20139;-71
2022/08/18 02:50:44;;;;;;;0.50;0.50;;;;;;;20.29;83.31;101334.13;1950054;30;20595;-71
2022/08/18 02:51:49;;;;;;;0.50;0.50;;;;;;;20.29;83.44;101344.31;1949971;30;20105;-71
2022/08/18 02:52:53;;;;;;;0.60;0.60;;;;;;;20.26;83.47;101343.16;1963324;30;20052;-71
2022/08/18 02:53:58;;;;;;;0.50;0.50;;;;;;;20.26;83.56;101343.16;1968089;30;20064;-70
2022/08/18 02:55:01;;;;;;;0.50;0.50;;;;;;;20.25;83.05;101340.78;1961933;30;20052;-71
2022/08/18 02:56:22;;;;;;;0.50;0.50;;;;;;;20.23;82.98;101346.66;1959789;30;20064;-71
2022/08/18 02:57:44;;;;;;;0.60;0.60;;;;;;;20.15;83.45;101347.84;1958323;30;20064;-70
2022/08/18 02:58:47;;;;;;;0.60;0.60;;;;;;;20.19;83.16;101345.09;1964515;30;20437;-71
2022/08/18 02:59:50;;;;;;;0.52;0.52;;;;;;;20.16;83.02;101349.41;1968641;30;20130;-70
2022/08/18 03:00:52;;;;;;;0.60;0.60;;;;;;;20.15;83.45;101347.84;1968059;30;20071;-71
2022/08/18 03:01:56;;;;;;;0.50;0.50;;;;;;;20.17;83.54;101347.47;1968187;30;20055;-71
2022/08/18 03:02:58;;;;;;;0.50;0.50;;;;;;;20.17;83.74;101347.47;1963364;30;20056;-72
2022/08/18 03:04:01;;;;;;;0.57;0.57;;;;;;;20.18;83.68;101343.53;1956381;30;20064;-72
2022/08/18 03:05:04;;;;;;;0.50;0.50;;;;;;;20.20;83.48;101352.16;1964202;30;20060;-71
2022/08/18 03:06:06;;;;;;;0.60;0.60;;;;;;;20.21;84.27;101354.50;1966645;30;20122;-70
2022/08/18 03:07:09;;;;;;;0.50;0.50;;;;;;;20.22;83.93;101356.06;1968457;30;20056;-71
2022/08/18 03:08:12;;;;;;;0.50;0.50;;;;;;;20.22;83.91;101352.53;1965159;30;20139;-70
2022/08/18 03:09:17;;;;;;;0.55;0.55;;;;;;;20.25;83.29;101357.22;1964845;30;20068;-71
2022/08/18 03:10:19;;;;;;;0.50;0.50;;;;;;;20.24;83.16;101363.91;1964097;30;20492;-69
2022/08/18 03:11:37;;;;;;;0.40;0.40;;;;;;;20.22;83.58;101360.75;1965765;30;20546;-70
2022/08/18 03:12:41;;;;;;;0.50;0.50;;;;;;;20.23;83.71;101365.09;1963085;30;20093;-70
2022/08/18 03:13:45;;;;;;;0.50;0.50;;;;;;;20.23;83.82;101362.34;1954302;30;20076;-70
2022/08/18 03:14:47;;;;;;;0.50;0.50;;;;;;;20.24;84.00;101363.91;1963629;30;20102;-71
2022/08/18 03:15:50;;;;;;;0.60;0.60;;;;;;;20.25;83.58;101363.50;1967519;30;20110;-71
2022/08/18 03:16:58;;;;;;;0.50;0.50;;;;;;;20.24;83.54;101361.94;1970976;30;20130;-71
2022/08/18 03:18:01;;;;;;;0.50;0.50;;;;;;;20.23;83.50;101367.81;1965090;30;20383;-71
2022/08/18 03:19:03;;;;;;;0.50;0.50;;;;;;;20.21;83.15;101370.19;1967134;30;20421;-71
2022/08/18 03:20:07;;;;;;;0.50;0.50;;;;;;;20.21;83.30;101359.22;1957991;30;20467;-70
2022/08/18 03:21:12;;;;;;;0.50;0.50;;;;;;;20.18;83.54;101366.28;1956942;30;20068;-70
2022/08/18 03:22:15;;;;;;;0.50;0.50;;;;;;;20.15;83.28;101366.25;1957425;30;20518;-70
2022/08/18 03:23:30;;;;;;;0.50;0.50;;;;;;;20.11;83.53;101366.22;1957542;30;20064;-69
2022/08/18 03:24:32;;;;;;;0.50;0.50;;;;;;;20.10;83.74;101370.16;1959839;30;20060;-71
2022/08/18 03:25:35;;;;;;;0.50;0.50;;;;;;;20.10;83.77;101372.09;1966396;30;20135;-69
2022/08/18 03:26:42;;;;;;;0.50;0.50;;;;;;;20.11;83.53;101376.41;1966381;30;20094;-69
2022/08/18 03:27:44;;;;;;;0.50;0.50;;;;;;;20.10;84.05;101372.09;1965192;30;20131;-70
2022/08/18 03:28:48;;;;;;;0.50;0.50;;;;;;;20.09;84.10;101378.78;1967123;30;20049;-70
2022/08/18 03:29:52;;;;;;;0.50;0.50;;;;;;;20.11;84.10;101373.66;1966442;30;20112;-70
2022/08/18 03:30:54;;;;;;;0.50;0.50;;;;;;;20.10;83.84;101364.66;1965330;30;20494;-70
2022/08/18 03:31:57;;;;;;;0.50;0.50;;;;;;;20.15;83.79;101377.22;1960347;30;20574;-70
2022/08/18 03:32:59;;;;;;;0.50;0.50;;;;;;;20.12;83.80;101370.53;1957110;30;20144;-70
2022/08/18 03:34:02;;;;;;;0.50;0.50;;;;;;;20.15;83.37;101358.03;1970663;30;20063;-70
2022/08/18 03:35:05;;;;;;;0.50;0.50;;;;;;;20.15;83.52;101366.25;1969287;30;20060;-70
2022/08/18 03:36:11;;;;;;;0.50;0.50;;;;;;;20.14;83.67;101370.16;1963345;30;20065;-71
2022/08/18 03:37:14;;;;;;;0.50;0.50;;;;;;;20.12;83.78;101373.28;1963306;30;20556;-71
2022/08/18 03:38:16;;;;;;;0.50;0.50;;;;;;;20.13;83.70;101368.56;1964881;30;20064;-71
2022/08/18 03:39:22;;;;;;;0.50;0.50;;;;;;;20.12;83.79;101367.78;1965366;30;20087;-71
2022/08/18 03:40:24;;;;;;;0.40;0.40;;;;;;;20.15;83.54;101371.75;1967238;30;20421;-69
2022/08/18 03:41:29;;;;;;;0.43;0.43;;;;;;;20.13;83.61;101368.56;1963665;30;20084;-70
2022/08/18 03:42:53;;;;;;;0.45;0.45;;;;;;;20.08;84.00;101372.50;1962701;30;20068;-71
2022/08/18 03:43:55;;;;;;;0.50;0.50;;;;;;;20.02;84.11;101374.06;1967011;30;20056;-70
2022/08/18 03:44:58;;;;;;;0.60;0.60;;;;;;;20.01;84.24;101371.72;1953920;30;20540;-71
2022/08/18 03:46:01;;;;;;;0.50;0.50;;;;;;;20.00;83.92;101372.88;1956563;30;20119;-72
2022/08/18 03:47:07;;;;;;;0.50;0.50;;;;;;;19.96;84.52;101380.31;1966100;30;20079;-71
2022/08/18 03:48:09;;;;;;;0.50;0.50;;;;;;;19.91;84.56;101377.97;1963462;30;20067;-70
2022/08/18 03:49:13;;;;;;;0.50;0.50;;;;;;;19.90;84.61;101379.16;1962237;30;20059;-71
2022/08/18 03:50:15;;;;;;;0.60;0.60;;;;;;;19.87;84.84;101374.47;1965671;30;20135;-71
2022/08/18 03:51:20;;;;;;;0.52;0.52;;;;;;;19.86;85.02;101381.88;1964940;30;20087;-71
2022/08/18 03:52:22;;;;;;;0.50;0.50;;;;;;;19.81;84.91;101373.25;1969609;30;20572;-72
2022/08/18 03:53:25;;;;;;;0.55;0.55;;;;;;;19.80;84.97;101386.19;1966125;30;20056;-72
2022/08/18 03:54:30;;;;;;;0.50;0.50;;;;;;;19.79;85.06;101383.84;1969792;30;20126;-71
2022/08/18 03:55:34;;;;;;;0.43;0.43;;;;;;;19.78;85.20;101387.72;1968941;30;20676;-71
2022/08/18 03:56:38;;;;;;;0.50;0.50;;;;;;;19.75;85.51;101374.81;1965514;30;20127;-72
2022/08/18 03:57:41;;;;;;;0.60;0.60;;;;;;;19.74;85.42;101379.50;1966192;30;20136;-72
2022/08/18 03:58:48;;;;;;;0.50;0.50;;;;;;;19.75;85.54;101385.78;1964860;30;20143;-72
2022/08/18 03:59:53;;;;;;;0.50;0.50;;;;;;;19.75;85.62;101377.56;1960571;30;20068;-72
2022/08/18 04:00:55;;;;;;;0.50;0.50;;;;;;;19.77;85.44;101377.97;1963496;30;20064;-72
2022/08/18 04:01:58;;;;;;;0.50;0.50;;;;;;;19.77;85.15;101381.50;1968434;30;20059;-71
2022/08/18 04:03:01;;;;;;;0.43;0.43;;;;;;;19.77;85.22;101386.97;1963271;30;20075;-71
2022/08/18 04:04:08;;;;;;;0.50;0.50;;;;;;;19.77;84.96;101380.69;1955583;30;20510;-71
2022/08/18 04:05:12;;;;;;;0.50;0.50;;;;;;;19.78;85.41;101385.00;1964048;30;20534;-72
2022/08/18 04:06:15;;;;;;;0.50;0.50;;;;;;;19.78;85.23;101382.25;1962095;30;20453;-72
2022/08/18 04:07:31;;;;;;;0.50;0.50;;;;;;;19.77;85.28;101386.97;1964045;30;20503;-72
2022/08/18 04:08:33;;;;;;;0.50;0.50;;;;;;;19.78;85.09;101385.00;1966596;30;20071;-72
2022/08/18 04:09:38;;;;;;;0.60;0.60;;;;;;;19.82;85.01;101389.31;1962731;30;20086;-71
2022/08/18 04:10:43;;;;;;;0.60;0.60;;;;;;;19.81;85.29;101379.53;1962483;30;20048;-70
2022/08/18 04:11:46;;;;;;;0.60;0.60;;;;;;;19.82;85.40;101380.31;1964819;30;20170;-71
2022/08/18 04:12:50;;;;;;;0.60;0.60;;;;;;;19.81;85.59;101379.53;1962791;30;20072;-72
2022/08/18 04:13:56;;;;;;;0.60;0.60;;;;;;;19.86;85.09;101383.84;1959396;30;20134;-72
2022/08/18 04:14:59;;;;;;;0.70;0.70;;;;;;;19.85;85.30;101385.00;1965400;30;20402;-71
2022/08/18 04:16:02;;;;;;;0.70;0.70;;;;;;;19.86;85.24;101386.56;1968961;30;20211;-72
2022/08/18 04:17:05;;;;;;;0.68;0.68;;;;;;;19.87;85.21;101394.41;1969360;30;20506;-72
2022/08/18 04:18:07;;;;;;;0.60;0.60;;;;;;;19.87;85.56;101390.91;1964466;30;20515;-72
2022/08/18 04:19:12;;;;;;;0.60;0.60;;;;;;;19.91;85.23;101397.16;1967558;30;20501;-70
2022/08/18 04:20:15;;;;;;;0.65;0.65;;;;;;;19.92;85.46;101388.53;1965544;30;20052;-71
2022/08/18 04:21:18;;;;;;;0.60;0.60;;;;;;;19.94;85.38;101394.44;1964484;30;20091;-71
2022/08/18 04:22:21;;;;;;;0.70;0.70;;;;;;;19.97;85.69;101392.84;1962987;30;20059;-70
2022/08/18 04:23:24;;;;;;;0.50;0.50;;;;;;;19.98;85.31;101394.44;1963493;30;20071;-71
2022/08/18 04:24:28;;;;;;;0.60;0.60;;;;;;;20.02;85.44;101395.22;1961964;30;20087;-72
2022/08/18 04:25:33;;;;;;;0.68;0.68;;;;;;;20.02;85.13;101389.72;1961346;30;20063;-71
2022/08/18 04:26:39;;;;;;;0.80;0.80;;;;;;;20.04;85.08;101396.38;1953598;30;20529;-71
2022/08/18 04:27:42;;;;;;;0.70;0.70;;;;;;;20.04;85.21;101392.88;1949516;30;20152;-71
2022/08/18 04:28:45;;;;;;;0.70;0.70;;;;;;;20.05;85.06;101400.69;1956099;30;20143;-71
2022/08/18 04:29:49;;;;;;;0.75;0.75;;;;;;;20.04;84.70;101392.88;1963969;30;20765;-71
2022/08/18 04:30:52;;;;;;;0.70;0.70;;;;;;;20.03;84.79;101394.03;1968942;30;20127;-72
2022/08/18 04:31:55;;;;;;;0.90;0.90;;;;;;;20.01;84.68;101393.66;1966802;30;20098;-72
2022/08/18 04:33:00;;;;;;;0.70;0.70;;;;;;;20.01;84.78;101396.41;1968442;30;20064;-70
2022/08/18 04:34:03;;;;;;;0.70;0.70;;;;;;;19.99;84.87;101396.00;1966419;30;20051;-72
2022/08/18 04:35:07;;;;;;;0.80;0.80;;;;;;;20.00;84.59;101390.13;1963607;30;20501;-71
2022/08/18 04:36:15;;;;;;;0.80;0.80;;;;;;;19.99;85.46;101390.50;1958948;30;20417;-71
2022/08/18 04:37:22;;;;;;;0.70;0.70;;;;;;;19.97;85.31;101392.84;1968993;30;20055;-70
2022/08/18 04:38:24;;;;;;;0.70;0.70;;;;;;;19.99;85.55;101396.00;1962647;30;20055;-71
2022/08/18 04:39:27;;;;;;;0.70;0.70;;;;;;;20.01;85.53;101391.66;1948087;30;20088;-71
2022/08/18 04:40:32;;;;;;;0.60;0.60;;;;;;;20.04;84.91;101398.34;1956423;30;20069;-71
2022/08/18 04:41:36;;;;;;;0.70;0.70;;;;;;;20.04;84.97;101403.84;1971148;30;20143;-72
2022/08/18 04:42:38;;;;;;;0.70;0.70;;;;;;;20.04;84.71;101395.59;1961116;30;20170;-72
2022/08/18 04:43:46;;;;;;;0.80;0.80;;;;;;;20.04;84.85;101403.84;1960893;30;20110;-72
2022/08/18 04:44:50;;;;;;;0.75;0.75;;;;;;;20.06;85.09;101401.50;1967871;30;20135;-70
2022/08/18 04:45:53;;;;;;;0.65;0.65;;;;;;;20.05;84.95;101397.16;1965338;30;20064;-71
2022/08/18 04:46:55;;;;;;;0.60;0.60;;;;;;;20.08;85.02;101404.59;1963542;30;20091;-70
2022/08/18 04:47:58;;;;;;;0.70;0.70;;;;;;;20.08;85.13;101404.59;1962532;30;20099;-71
2022/08/18 04:49:00;;;;;;;0.60;0.60;;;;;;;20.08;84.96;101410.88;1968121;30;20486;-71
2022/08/18 04:50:03;;;;;;;0.70;0.70;;;;;;;20.12;84.85;101410.88;1960902;30;20472;-71
2022/08/18 04:51:08;;;;;;;0.73;0.73;;;;;;;20.13;84.91;101407.75;1963796;30;20063;-72
2022/08/18 04:53:46;;;;;;;0.70;0.70;;;;;;;20.07;84.90;101403.03;1964160;30;20149;-71
2022/08/18 04:54:49;;;;;;;0.65;0.65;;;;;;;20.10;84.97;101413.22;1963206;30;20142;-71
2022/08/18 04:55:55;;;;;;;0.60;0.60;;;;;;;20.13;84.78;101405.00;1963120;30;20068;-71
2022/08/18 04:56:57;;;;;;;0.80;0.80;;;;;;;20.11;84.84;101412.84;1966745;30;20202;-72
2022/08/18 04:58:00;;;;;;;0.80;0.80;;;;;;;20.13;85.11;101406.97;1956400;30;20128;-72
2022/08/18 04:59:06;;;;;;;0.80;0.80;;;;;;;20.14;84.81;101411.28;1956291;30;20467;-72
2022/08/18 05:00:12;;;;;;;0.82;0.82;;;;;;;20.15;84.23;101415.63;1961919;30;20060;-72
2022/08/18 05:01:16;;;;;;;0.63;0.63;;;;;;;20.11;84.88;101410.09;1955140;30;20421;-71
2022/08/18 05:02:20;;;;;;;0.80;0.80;;;;;;;20.14;84.68;101414.03;1963133;30;20056;-71
2022/08/18 05:03:25;;;;;;;0.80;0.80;;;;;;;20.11;84.62;101410.09;1966338;30;20120;-71
2022/08/18 05:04:29;;;;;;;0.70;0.70;;;;;;;20.14;84.51;101419.50;1964579;30;20436;-72
2022/08/18 05:05:32;;;;;;;0.70;0.70;;;;;;;20.14;84.61;101416.78;1971665;30;20623;-72
2022/08/18 05:06:34;;;;;;;0.80;0.80;;;;;;;20.13;84.41;101415.19;1968411;30;20052;-72
2022/08/18 05:07:43;;;;;;;0.80;0.80;;;;;;;20.12;84.34;101413.63;1955312;30;20135;-71
2022/08/18 05:08:47;;;;;;;0.80;0.80;;;;;;;20.09;84.71;101408.94;1956966;30;20528;-71
2022/08/18 05:09:50;;;;;;;0.70;0.70;;;;;;;20.12;84.85;101411.66;1956623;30;20127;-72
2022/08/18 05:10:53;;;;;;;0.80;0.80;;;;;;;20.12;84.87;101413.63;1962754;30;20135;-72